Data for 06/10/2013

Time Sea-Level Adjusted Pressure Absolute Pressure Temperature Relative Humidity Dew Point   
(mb) (inHg) (mb) (inHg) (C) (F) (%) (C) (F)
00:05 1015 29.97 844 24.92 13.7 56.6 40 0.2 32.4
00:10 1015 29.97 844 24.92 13.4 56.1 40 0.1 32.3
00:15 1015 29.97 844 24.92 13.2 55.7 42 0.7 33.2
00:20 1015 29.97 844 24.92 12.8 55 42 0.4 32.7
00:25 1015 29.97 844 24.92 12.9 55.2 41 0 32.1
00:30 1015 29.97 844 24.92 12.8 55.1 41 0.1 32.1
00:35 1015 29.97 844 24.92 13 55.4 40 -0.2 31.6
00:40 1015 29.97 844 24.92 13 55.4 43 0.8 33.4
00:45 1015 29.97 844 24.92 12.4 54.4 43 0.1 32.2
00:50 1015 29.97 844 24.92 12.4 54.3 44 0.4 32.7
00:55 1015 29.97 844 24.92 12.2 54 45 0.6 33.1
01:00 1015 29.97 844 24.92 11.9 53.3 47 0.9 33.6
01:05 1015 29.97 844 24.92 11.6 52.9 46 0.3 32.6
01:10 1015 29.97 844 24.92 11.6 52.8 49 1.2 34.2
01:15 1015 29.97 844 24.92 11.1 52.1 48 0.7 33.2
01:20 1015 29.97 844 24.92 11.5 52.6 47 0.5 33
01:25 1015 29.97 844 24.92 11.7 53 45 0.1 32.2
01:30 1015 29.97 844 24.92 11.8 53.2 42 -0.6 31
01:35 1015 29.97 844 24.92 11.9 53.4 43 -0.2 31.7
01:40 1015 29.97 844 24.92 11.9 53.5 43 -0.2 31.6
01:45 1015 29.97 844 24.92 11.8 53.3 44 0.1 32.1
01:50 1015 29.97 844 24.92 11.6 52.8 45 0.2 32.4
01:55 1015 29.97 844 24.92 11.3 52.4 47 0.4 32.8
02:00 1015 29.97 844 24.92 11.2 52.2 46 0.1 32.2
02:05 1015 29.97 844 24.92 11.1 52 47 0.1 32.2
02:10 1015 29.97 844 24.92 10.9 51.7 45 -0.3 31.4
02:15 1015 29.97 844 24.92 10.9 51.7 46 -0.1 31.8
02:20 1015 29.97 844 24.92 10.9 51.6 48 0.2 32.4
02:25 1015 29.97 844 24.92 10.7 51.2 48 0.1 32.2
02:30 1015 29.97 844 24.92 10.5 50.8 49 0.1 32.2
02:35 1015 29.97 844 24.92 10.3 50.6 47 -0.3 31.4
02:40 1015 29.97 844 24.92 10.4 50.6 46 -0.6 30.9
02:45 1015 29.97 844 24.92 10.6 51 44 -1.2 29.9
02:50 1015 29.97 844 24.92 10.8 51.4 43 -1.1 30
02:55 1015 29.97 844 24.92 10.9 51.6 41 -2 28.4
03:00 1015 29.97 844 24.92 11.4 52.4 40 -1.7 29
03:05 1015 29.97 844 24.92 11.1 52 42 -1.4 29.5
03:10 1015 29.97 844 24.92 10.9 51.6 43 -1.1 30
03:15 1015 29.97 844 24.92 10.6 51.1 44 -1.1 29.9
03:20 1015 29.97 844 24.92 10.4 50.8 45 -0.9 30.4
03:25 1015 29.97 844 24.92 10.3 50.5 46 -0.9 30.4
03:30 1015 29.97 844 24.92 10.2 50.4 46 -1 30.3
03:35 1015 29.97 844 24.92 10.3 50.6 44 -1.5 29.3
03:40 1015 29.97 844 24.92 10.5 50.9 44 -1.3 29.6
03:45 1015 29.97 844 24.92 10.4 50.8 44 -1.4 29.5
03:50 1015 29.97 844 24.92 10.5 50.9 42 -1.8 28.8
03:55 1015 29.97 844 24.92 10.8 51.4 40 -2.3 27.9
04:00 1015 29.97 844 24.92 10.9 51.5 42 -1.7 29
04:05 1015 29.97 844 24.92 10.7 51.2 41 -2 28.4
04:10 1015 29.97 844 24.92 10.8 51.5 40 -2.2 28
04:15 1015 29.97 844 24.92 10.9 51.7 40 -2.1 28.2
04:20 1015 29.97 844 24.92 10.8 51.5 40 -2.4 27.8
04:25 1015 29.97 844 24.92 10.7 51.2 41 -2 28.3
04:30 1015 29.97 844 24.92 10.9 51.6 38 -2.9 26.7
04:35 1015 29.97 844 24.92 11.1 51.9 39 -2.4 27.7
04:40 1015 29.97 844 24.92 10.9 51.6 40 -2.3 27.8
04:45 1015 29.97 844 24.92 10.7 51.3 40 -2.2 28.1
04:50 1015 29.97 844 24.92 10.4 50.7 42 -2.1 28.3
04:55 1015 29.97 844 24.92 10.3 50.6 42 -2.1 28.2
05:00 1015 29.97 844 24.92 10.4 50.7 42 -2 28.5
05:05 1015 29.97 845 24.95 10.7 51.2 40 -2.2 28.1
05:10 1015 29.97 845 24.95 10.8 51.4 39 -2.5 27.5
05:15 1015 29.97 845 24.95 10.8 51.5 40 -2.2 28.1
05:20 1015 29.97 845 24.95 10.5 51 43 -1.6 29.1
05:25 1015 29.97 845 24.95 10.1 50.3 44 -1.5 29.2
05:30 1015 29.97 845 24.95 10.2 50.3 44 -1.5 29.3
05:35 1015 29.97 845 24.95 10.2 50.4 45 -1.1 30.1
05:40 1015 29.97 845 24.95 10.1 50.2 46 -1 30.2
05:45 1015 29.97 845 24.95 10.3 50.5 44 -1.4 29.5
05:50 1015 29.97 845 24.95 10.7 51.3 43 -1.3 29.7
05:55 1015 29.97 845 24.95 10.9 51.7 43 -0.9 30.3
06:00 1015 29.97 844 24.92 10.6 51.1 45 -0.7 30.7
06:05 1015 29.97 844 24.92 10.3 50.5 47 -0.6 30.9
06:10 1015 29.97 844 24.92 10.5 50.9 46 -0.7 30.7
06:15 1015 29.97 845 24.95 10.9 51.6 45 -0.5 31.1
06:20 1015 29.97 845 24.95 11 51.9 44 -0.6 30.9
06:25 1015 29.97 845 24.95 11.4 52.5 43 -0.8 30.6
06:30 1015 29.97 845 24.95 12 53.7 40 -1.1 29.9
06:35 1015 29.97 845 24.95 12.6 54.7 39 -1 30.2
06:40 1015 29.97 845 24.95 13.2 55.7 39 -0.5 31.1
06:45 1015 29.97 845 24.95 13.8 56.9 38 -0.3 31.4
06:50 1015 29.97 845 24.95 14.1 57.3 39 0.2 32.4
06:55 1015 29.97 845 24.95 14.2 57.6 37 -0.3 31.5
07:00 1015 29.97 845 24.95 14.3 57.7 37 -0.3 31.5
07:05 1015 29.97 845 24.95 14.8 58.6 33 -1.1 30.1
07:10 1015 29.97 845 24.95 14.7 58.5 34 -1 30.3
07:15 1015 29.97 845 24.95 15.1 59.2 31 -1.7 28.9
07:20 1015 29.97 845 24.95 15.9 60.6 30 -1.6 29.1
07:25 1015 29.97 845 24.95 16.2 61.2 31 -0.7 30.7
07:30 1015 29.97 844 24.92 16 60.8 28 -2.2 28.1
07:35 1015 29.97 845 24.95 16 60.7 30 -1.7 28.9
07:40 1015 29.97 845 24.95 16.7 62 29 -1.3 29.6
07:45 1015 29.97 844 24.92 17.1 62.8 28 -1.4 29.5
07:50 1015 29.97 844 24.92 17.5 63.4 26 -1.9 28.6
07:55 1015 29.97 844 24.92 17.9 64.1 25 -2.4 27.8
08:00 1015 29.97 844 24.92 17.2 62.9 25 -2.9 26.8
08:05 1015 29.97 844 24.92 17.3 63.1 26 -2.3 27.8
08:10 1015 29.97 844 24.92 17.8 64 25 -2.2 28
08:15 1015 29.97 844 24.92 17.9 64.2 24 -2.7 27.2
08:20 1015 29.97 844 24.92 17.3 63.1 25 -2.8 27
08:25 1015 29.97 844 24.92 17.3 63.1 25 -2.7 27.1
08:30 1015 29.97 844 24.92 17.8 64 23 -3.4 26
08:35 1015 29.97 844 24.92 18.2 64.8 22 -3.6 25.6
08:40 1015 29.97 844 24.92 18 64.3 24 -2.6 27.4
08:45 1015 29.97 844 24.92 18.4 65 23 -3.1 26.5
08:50 1015 29.97 844 24.92 17.9 64.2 24 -2.7 27.1
08:55 1015 29.97 844 24.92 17.9 64.3 24 -2.6 27.3
09:00 1015 29.97 844 24.92 18.4 65.1 23 -3 26.6
09:05 1015 29.97 844 24.92 18.5 65.3 23 -2.9 26.8
09:10 1015 29.97 844 24.92 18.1 64.5 23 -3.2 26.3
09:15 1015 29.97 844 24.92 18 64.4 23 -3.3 26.1
09:20 1015 29.97 844 24.92 18.1 64.7 24 -2.9 26.8
09:25 1015 29.97 844 24.92 18.5 65.2 23 -2.6 27.2
09:30 1015 29.97 844 24.92 19.2 66.5 25 -1.3 29.7
09:35 1015 29.97 844 24.92 19.2 66.5 23 -2.2 28.1
09:40 1015 29.97 844 24.92 19.4 66.8 22 -2.5 27.4
09:45 1015 29.97 844 24.92 19.9 67.8 23 -1.8 28.8
09:50 1015 29.97 844 24.92 20 67.9 24 -1.1 30.1
09:55 1015 29.97 844 24.92 20.4 68.8 19 -4.1 24.7
10:00 1015 29.97 844 24.92 20.5 68.8 21 -2.3 27.8
10:05 1015 29.97 844 24.92 20.4 68.6 22 -1.6 29.1
10:10 1015 29.97 844 24.92 20.6 69.1 22 -1.9 28.6
10:15 1015 29.97 844 24.92 20.7 69.3 22 -1.5 29.4
10:20 1015 29.97 844 24.92 21.2 70.1 21 -1.6 29.2
10:25 1015 29.97 844 24.92 21.7 71 21 -1.4 29.5
10:30 1014 29.94 844 24.92 20.4 68.7 23 -1.1 30
10:35 1014 29.94 844 24.92 21.1 69.9 24 -0.4 31.4
10:40 1014 29.94 844 24.92 21.2 70.1 23 -0.7 30.7
10:45 1014 29.94 844 24.92 21.3 70.3 25 0.4 32.8
10:50 1014 29.94 843 24.89 20.9 69.7 25 0.2 32.4
10:55 1014 29.94 843 24.89 21.2 70.2 25 0.6 33.1
11:00 1014 29.94 843 24.89 21.5 70.7 24 0.2 32.3
11:05 1014 29.94 843 24.89 21.3 70.3 24 0.3 32.5
11:10 1014 29.94 843 24.89 21.7 71.1 24 0.4 32.7
11:15 1014 29.94 843 24.89 21.8 71.2 23 0 32
11:20 1014 29.94 843 24.89 22.6 72.6 22 -0.2 31.7
11:25 1014 29.94 843 24.89 22.9 73.1 22 0.5 32.9
11:30 1014 29.94 843 24.89 23.4 74.1 22 0.4 32.7
11:35 1014 29.94 843 24.89 23.2 73.8 22 0.5 32.9
11:40 1014 29.94 843 24.89 23.4 74.1 21 0.2 32.4
11:45 1014 29.94 843 24.89 23.1 73.6 23 1.3 34.4
11:50 1014 29.94 843 24.89 22.3 72.1 23 0.3 32.5
11:55 1013 29.91 843 24.89 23.4 74 22 0.7 33.2
12:00 1013 29.91 843 24.89 23.5 74.3 23 1.6 34.8
12:05 1013 29.91 843 24.89 23.5 74.4 22 0.6 33
12:10 1013 29.91 843 24.89 24.1 75.3 24 2.2 36
12:15 1013 29.91 842 24.86 23.7 74.6 23 1.6 34.9
12:20 1013 29.91 842 24.86 23.9 75 22 1.3 34.3
12:25 1013 29.91 842 24.86 24.5 76 22 1.7 35.1
12:30 1013 29.91 842 24.86 24.2 75.6 23 2.3 36.1
12:35 1013 29.91 842 24.86 23.3 73.9 22 0.3 32.5
12:40 1013 29.91 842 24.86 24 75.1 21 0.4 32.7
12:45 1013 29.91 842 24.86 24.1 75.5 21 0.9 33.6
12:50 1013 29.91 842 24.86 23.9 74.9 23 1.5 34.7
12:55 1013 29.91 842 24.86 23.5 74.4 22 0.9 33.5
13:00 1013 29.91 842 24.86 25 76.9 21 1.6 35
13:05 1013 29.91 842 24.86 25.3 77.5 21 1.6 34.9
13:10 1013 29.91 842 24.86 25.4 77.8 22 2.4 36.3
13:15 1013 29.91 842 24.86 25.6 78.1 21 1.8 35.2
13:20 1013 29.91 842 24.86 25.7 78.3 22 2.4 36.4
13:25 1013 29.91 842 24.86 25.8 78.5 22 3 37.4
13:30 1012 29.88 842 24.86 24.9 76.7 23 2.7 36.9
13:35 1012 29.88 842 24.86 24.5 76.1 23 2.4 36.3
13:40 1012 29.88 842 24.86 26 78.7 23 3.6 38.5
13:45 1012 29.88 841 24.83 25.2 77.4 23 2.9 37.2
13:50 1012 29.88 841 24.83 25 77 24 3.5 38.4
13:55 1012 29.88 841 24.83 24.3 75.7 24 2.9 37.2
14:00 1012 29.88 841 24.83 25 76.9 24 3.1 37.6
14:05 1012 29.88 841 24.83 25.3 77.6 23 2.8 37
14:10 1012 29.88 841 24.83 25.6 78.2 24 3.8 38.8
14:15 1012 29.88 841 24.83 25.8 78.5 23 3.6 38.4
14:20 1012 29.88 841 24.83 26 78.7 23 3.4 38.2
14:25 1012 29.88 841 24.83 26.3 79.3 22 3 37.4
14:30 1012 29.88 841 24.83 26.1 79 23 3.7 38.6
14:35 1012 29.88 841 24.83 26 78.9 23 3.5 38.2
14:40 1012 29.88 841 24.83 25.7 78.3 24 4 39.3
14:45 1012 29.88 841 24.83 24.9 76.9 25 4 39.2
14:50 1012 29.88 841 24.83 25.2 77.4 24 3.6 38.6
14:55 1012 29.88 841 24.83 25.1 77.1 24 3.3 38
15:00 1011 29.85 841 24.83 25.3 77.6 24 3.8 38.9
15:05 1011 29.85 841 24.83 25.2 77.4 25 3.9 39
15:10 1011 29.85 841 24.83 25.3 77.5 25 4.1 39.4
15:15 1011 29.85 841 24.83 24.9 76.8 26 4.5 40.1
15:20 1011 29.85 841 24.83 24.5 76 29 5.3 41.6
15:25 1011 29.85 840 24.81 23.9 75.1 30 5.6 42
15:30 1011 29.85 840 24.81 23.4 74.2 32 6 42.8
15:35 1011 29.85 840 24.81 23 73.4 33 6 42.8
15:40 1011 29.85 840 24.81 22.7 72.8 33 5.8 42.5
15:45 1011 29.85 840 24.81 22.3 72.1 35 6.2 43.2
15:50 1012 29.88 841 24.83 22 71.6 35 6.2 43.2
15:55 1011 29.85 841 24.83 21.8 71.3 35 6 42.7
16:00 1011 29.85 840 24.81 21.7 71.1 34 5.3 41.5
16:05 1011 29.85 840 24.81 21.6 70.9 35 5.6 42
16:10 1011 29.85 840 24.81 21.5 70.7 34 5 41
16:15 1012 29.88 841 24.83 21.7 71 34 5.2 41.3
16:20 1013 29.91 842 24.86 22.3 72.1 31 4.7 40.4
16:25 1013 29.91 842 24.86 22.1 71.8 42 8.9 48.1
16:30 1012 29.88 842 24.86 21 69.8 44 8.4 47.1
16:35 1012 29.88 841 24.83 20 68 48 8.8 47.8
16:40 1011 29.85 840 24.81 19.2 66.6 48 8.2 46.8
16:45 1012 29.88 841 24.83 19.3 66.7 47 7.9 46.2
16:50 1011 29.85 841 24.83 19.4 66.8 47 7.7 45.9
16:55 1011 29.85 840 24.81 19.1 66.4 48 8.1 46.6
17:00 1011 29.85 841 24.83 19.4 67 48 8.4 47.1
17:05 1011 29.85 841 24.83 19.3 66.7 51 8.9 48
17:10 1011 29.85 840 24.81 18.7 65.7 54 9.2 48.6
17:15 1011 29.85 840 24.81 18.7 65.6 51 8.6 47.4
17:20 1011 29.85 840 24.81 18.7 65.6 50 8.1 46.5
17:25 1011 29.85 840 24.81 19.5 67.1 46 7.9 46.1
17:30 1011 29.85 840 24.81 19.1 66.3 47 7.6 45.7
17:35 1011 29.85 840 24.81 18.9 66 47 7.4 45.3
17:40 1011 29.85 841 24.83 18.9 66 47 7.4 45.2
17:45 1011 29.85 841 24.83 19 66.2 46 7.3 45.1
17:50 1011 29.85 840 24.81 19.1 66.5 45 7 44.6
17:55 1011 29.85 840 24.81 19.4 66.8 46 7.7 45.8
18:00 1011 29.85 840 24.81 19.3 66.8 44 6.9 44.5
18:05 1011 29.85 840 24.81 19.3 66.8 48 8.2 46.7
18:10 1010 29.83 839 24.78 18.7 65.6 49 8 46.4
18:15 1011 29.85 840 24.81 18.5 65.4 50 8.1 46.5
18:20 1011 29.85 840 24.81 18.4 65.1 51 8.2 46.8
18:25 1011 29.85 841 24.83 18.3 65 51 8.2 46.8
18:30 1012 29.88 841 24.83 18.2 64.8 53 8.5 47.3
18:35 1012 29.88 841 24.83 18.1 64.6 53 8.6 47.5
18:40 1012 29.88 842 24.86 18 64.4 54 8.8 47.8
18:45 1013 29.91 842 24.86 17.9 64.2 54 8.6 47.5
18:50 1013 29.91 842 24.86 17.9 64.3 57 9.4 49
18:55 1012 29.88 842 24.86 17.7 63.9 58 9.5 49.2
19:00 1012 29.88 841 24.83 17.7 63.8 55 8.7 47.6
19:05 1012 29.88 841 24.83 17.7 63.8 59 9.6 49.3
19:10 1012 29.88 841 24.83 17.1 62.7 63 10 50
19:15 1012 29.88 841 24.83 16.7 62 65 10.2 50.3
19:20 1013 29.91 842 24.86 16.5 61.6 65 10 50.1
19:25 1013 29.91 842 24.86 16.4 61.5 67 10.2 50.4
19:30 1013 29.91 842 24.86 16.2 61.2 69 10.5 50.9
19:35 1013 29.91 842 24.86 16.1 61 70 10.6 51.1
19:40 1012 29.88 842 24.86 16 60.9 69 10.4 50.6
19:45 1013 29.91 842 24.86 16.2 61.1 68 10.3 50.5
19:50 1012 29.88 842 24.86 16.2 61.1 67 10.1 50.1
19:55 1012 29.88 841 24.83 16.2 61.2 65 9.7 49.5
20:00 1012 29.88 841 24.83 16.2 61.1 66 9.9 49.8
20:05 1012 29.88 841 24.83 15.9 60.7 67 9.9 49.8
20:10 1012 29.88 841 24.83 15.8 60.5 67 9.7 49.5
20:15 1012 29.88 842 24.86 15.8 60.4 68 10 49.9
20:20 1012 29.88 842 24.86 15.7 60.3 69 10 50.1
20:25 1012 29.88 842 24.86 15.7 60.2 69 10 49.9
20:30 1013 29.91 842 24.86 15.7 60.3 68 9.9 49.8
20:35 1012 29.88 842 24.86 15.9 60.5 67 9.9 49.8
20:40 1013 29.91 842 24.86 15.8 60.4 69 10.2 50.4
20:45 1014 29.94 843 24.89 15.6 60.2 66 9.3 48.7
20:50 1014 29.94 843 24.89 16.3 61.3 66 9.9 49.8
20:55 1014 29.94 843 24.89 16.1 61 67 10 50
21:00 1013 29.91 843 24.89 15.9 60.7 69 10.3 50.5
21:05 1013 29.91 842 24.86 15.7 60.2 70 10.3 50.5
21:10 1013 29.91 842 24.86 15.5 59.9 71 10.2 50.4
21:15 1013 29.91 842 24.86 15.5 59.9 69 10 50
21:20 1013 29.91 843 24.89 15.6 60 70 10.1 50.1
21:25 1013 29.91 842 24.86 15.6 60.1 68 9.9 49.8
21:30 1013 29.91 842 24.86 15.8 60.5 67 9.8 49.6
21:35 1013 29.91 842 24.86 16 60.8 65 9.5 49.1
21:40 1013 29.91 842 24.86 16.1 60.9 64 9.4 49
21:45 1013 29.91 842 24.86 16.2 61.1 63 9.3 48.7
21:50 1013 29.91 842 24.86 16.3 61.4 64 9.6 49.2
21:55 1013 29.91 842 24.86 15.9 60.7 68 10.2 50.3
22:00 1013 29.91 842 24.86 15.7 60.2 68 9.8 49.7
22:05 1013 29.91 843 24.89 15.6 60 70 10.1 50.2
22:10 1014 29.94 843 24.89 15.4 59.7 70 9.9 49.9
22:15 1014 29.94 843 24.89 15.5 59.9 68 9.6 49.3
22:20 1014 29.94 843 24.89 15.6 60 69 10.1 50.1
22:25 1014 29.94 843 24.89 15.4 59.6 69 9.9 49.7
22:30 1014 29.94 843 24.89 15.3 59.5 70 10 49.9
22:35 1014 29.94 843 24.89 15.2 59.3 69 9.7 49.4
22:40 1014 29.94 843 24.89 15.2 59.4 70 9.9 49.7
22:45 1013 29.91 843 24.89 15.2 59.3 71 9.9 49.9
22:50 1013 29.91 842 24.86 15.2 59.3 69 9.6 49.3
22:55 1012 29.88 842 24.86 15.3 59.5 69 9.7 49.4
23:00 1013 29.91 842 24.86 15.7 60.2 65 9.2 48.6
23:05 1013 29.91 842 24.86 15.7 60.2 66 9.4 48.9
23:10 1013 29.91 842 24.86 15.8 60.4 66 9.4 49
23:15 1013 29.91 842 24.86 15.7 60.2 66 9.3 48.8
23:20 1013 29.91 842 24.86 15.6 60.2 66 9.4 48.9
23:25 1013 29.91 842 24.86 15.5 59.9 68 9.7 49.4
23:30 1013 29.91 842 24.86 15.2 59.3 69 9.7 49.5
23:35 1013 29.91 842 24.86 15 59 69 9.5 49.1
23:40 1013 29.91 843 24.89 15.1 59.3 67 9.2 48.6
23:45 1013 29.91 843 24.89 15.2 59.4 68 9.4 48.8
23:50 1013 29.91 843 24.89 15.2 59.3 68 9.3 48.7
23:55 1013 29.91 842 24.86 15.3 59.5 67 9.3 48.7
24:00 1013 29.91 842 24.86 15.3 59.5 67 9.3 48.7